METAR Data
IDs: Format: Raw Decoded Include TAF

Data at: 1222 UTC 16 Jul 2019

KCVN 161156Z AUTO 21004KT 10SM CLR 21/14 A3008 RMK AO2 SLP133 6//// 7//// T02060139 10261 20206 53007 PNO $
KCVN 161056Z AUTO 21005KT 10SM CLR 21/13 A3007 RMK AO2 SLP129 T02110133 PNO $
KCVN 160956Z AUTO 18006KT 10SM CLR 22/13 A3005 RMK AO2 SLP121 T02220128 PNO $
KCVN 160856Z AUTO 16008KT 10SM CLR 23/13 A3005 RMK AO2 SLP122 6//// T02330128 58009 PNO $
KCVN 160756Z AUTO 18011KT 10SM CLR 25/12 A3006 RMK AO2 SLP121 T02500117 PNO $
KCVN 160656Z AUTO 25012KT 10SM BKN095 26/12 A3010 RMK AO2 SLP137 T02610117 403560161 PNO $
KCVN 160556Z AUTO 20006KT 10SM SCT110 23/12 A3009 RMK AO2 SLP137 6//// T02330117 10344 20228 51013 PNO $
KCVN 160456Z AUTO 17007KT 10SM CLR 24/12 A3009 RMK AO2 SLP135 T02440122 PNO $
KCVN 160356Z AUTO 15008KT 10SM CLR 26/12 A3007 RMK AO2 SLP130 T02610117 PNO $
KCVN 160256Z AUTO 14011KT 10SM CLR 28/12 A3004 RMK AO2 SLP120 6//// T02830117 53009 PNO $
KCVN 160156Z AUTO 14010KT 10SM CLR 30/11 A3003 RMK AO2 SLP115 T03000111 PNO $
KCVN 160056Z AUTO 15015KT 10SM CLR 33/10 A3001 RMK AO2 SLP111 T03330100 PNO $
KCVN 152356Z AUTO 14015KT 10SM CLR 34/11 A3001 RMK AO2 SLP112 6//// T03440106 10356 20311 56014 PNO $
KCVN 152256Z AUTO 15013G20KT 10SM CLR 34/11 A3002 RMK AO2 SLP116 T03440111 PNO $
KCVN 152156Z AUTO 18012G20KT 10SM CLR 35/12 A3003 RMK AO2 SLP118 T03500117 PNO $
KCVN 152056Z AUTO 18012G15KT 10SM CLR 34/12 A3006 RMK AO2 SLP128 6//// T03390122 58020 PNO $
KCVN 151956Z AUTO 20010G18KT 10SM CLR 35/12 A3008 RMK AO2 SLP134 T03500122 PNO $
KCVN 151856Z AUTO 18010G16KT 10SM CLR 33/12 A3010 RMK AO2 SLP143 T03280122 PNO $
KCVN 151756Z AUTO 12006KT 10SM CLR 31/12 A3012 RMK AO2 SLP151 6//// T03110117 10317 20172 58008 PNO $
KCVN 151656Z AUTO 21009KT 10SM CLR 31/12 A3013 RMK AO2 SLP157 T03060122 PNO $
KCVN 151556Z AUTO VRB06KT 10SM CLR 30/13 A3014 RMK AO2 SLP157 T03000128 PNO $
KCVN 151456Z AUTO VRB04KT 10SM CLR 27/13 A3015 RMK AO2 SLP163 6//// T02670133 53001 PNO $
KCVN 151356Z AUTO 16008KT 10SM CLR 25/14 A3013 RMK AO2 SLP155 T02500139 PNO $
KCVN 151256Z AUTO 16003KT 10SM CLR 21/13 A3013 RMK AO2 SLP155 T02110128 PNO $
KCVN 151156Z AUTO 00000KT 10SM CLR 18/12 A3014 RMK AO2 SLP160 6//// 7//// T01830122 10211 20161 58001 PNO $
KCVN 151056Z AUTO 00000KT 10SM CLR 17/12 A3015 RMK AO2 SLP165 T01670117 PNO $
KCVN 150956Z AUTO 34003KT 10SM CLR 19/12 A3016 RMK AO2 SLP165 T01940122 PNO $
KCVN 150856Z AUTO 36005KT 10SM FEW110 18/12 A3015 RMK AO2 SLP161 6//// T01780122 58001 PNO $
KCVN 150756Z AUTO 00000KT 10SM CLR 19/12 A3015 RMK AO2 SLP162 T01890117 PNO $
KCVN 150656Z AUTO 01003KT 10SM CLR 20/12 A3016 RMK AO2 SLP166 T02000117 403390150 PNO $
KCVN 150556Z AUTO 00000KT 10SM CLR 21/11 A3015 RMK AO2 SLP164 6//// T02060111 10322 20206 51006 PNO $
KCVN 150456Z AUTO 14004KT 10SM CLR 21/11 A3015 RMK AO2 SLP164 T02060111 PNO $
KCVN 150356Z AUTO 12006KT 10SM CLR 22/11 A3014 RMK AO2 SLP165 T02170106 PNO $
KCVN 150256Z AUTO 13006KT 10SM CLR 23/10 A3013 RMK AO2 SLP159 6//// T02330100 53006 PNO $
KCVN 150156Z AUTO 14008KT 10SM CLR 27/09 A3012 RMK AO2 SLP152 T02670094 PNO $
KCVN 150056Z AUTO 14013KT 10SM FEW002 30/10 A3011 RMK AO2 SLP150 T03000100 PNO $